createdAt,value
2018-05-08T00:00:46.338Z,4.97
2018-05-08T00:03:13.779Z,4.83
2018-05-08T00:05:41.186Z,3.80
2018-05-08T00:08:08.623Z,4.80
2018-05-08T00:10:36.033Z,4.00
2018-05-08T00:13:03.480Z,4.70
2018-05-08T00:15:30.885Z,5.20
2018-05-08T00:17:58.325Z,4.67
2018-05-08T00:20:25.814Z,4.47
2018-05-08T00:22:53.205Z,4.60
2018-05-08T00:25:20.608Z,4.60
2018-05-08T00:27:48.026Z,5.00
2018-05-08T00:30:15.453Z,5.20
2018-05-08T00:32:42.860Z,4.73
2018-05-08T00:35:10.301Z,5.30
2018-05-08T00:37:37.725Z,4.40
2018-05-08T00:40:05.161Z,4.60
2018-05-08T00:42:33.517Z,4.23
2018-05-08T00:45:00.953Z,4.00
2018-05-08T00:47:28.375Z,5.40
2018-05-08T00:49:55.806Z,4.27
2018-05-08T00:52:23.215Z,4.70
2018-05-08T00:55:02.374Z,4.83
2018-05-08T00:57:29.794Z,4.87
2018-05-08T00:59:57.233Z,5.13
2018-05-08T01:02:24.645Z,5.33
2018-05-08T01:04:52.084Z,6.60
2018-05-08T01:07:19.496Z,5.47
2018-05-08T01:09:46.929Z,5.00
2018-05-08T01:12:14.335Z,3.93
2018-05-08T01:14:41.785Z,4.30
2018-05-08T01:17:09.216Z,6.10
2018-05-08T01:19:36.641Z,4.33
2018-05-08T01:22:04.513Z,3.47
2018-05-08T01:24:31.922Z,4.53
2018-05-08T01:27:00.365Z,3.80
2018-05-08T01:29:28.710Z,3.90
2018-05-08T01:31:56.142Z,4.23
2018-05-08T01:34:23.649Z,4.20
2018-05-08T01:36:51.081Z,4.00
2018-05-08T01:39:18.533Z,4.13
2018-05-08T01:41:45.965Z,3.53
2018-05-08T01:44:13.380Z,3.97
2018-05-08T01:46:40.826Z,3.97
2018-05-08T01:49:08.238Z,4.27
2018-05-08T01:51:35.677Z,4.70
2018-05-08T01:54:03.090Z,3.93
2018-05-08T01:56:30.545Z,3.60
2018-05-08T01:58:57.956Z,3.73
2018-05-08T02:01:25.405Z,4.00
2018-05-08T02:03:52.813Z,4.30
2018-05-08T02:06:20.229Z,3.67
2018-05-08T02:08:47.673Z,3.77
2018-05-08T02:11:15.074Z,4.00
2018-05-08T02:13:42.514Z,3.63
2018-05-08T02:16:10.901Z,4.13
2018-05-08T02:18:38.345Z,3.73
2018-05-08T02:21:05.749Z,3.80
2018-05-08T02:23:33.201Z,4.20
2018-05-08T02:26:00.736Z,3.30
2018-05-08T02:28:29.026Z,3.53
2018-05-08T02:30:56.446Z,3.53
2018-05-08T02:33:23.889Z,3.50
2018-05-08T02:35:51.297Z,3.40
2018-05-08T02:38:18.735Z,4.07
2018-05-08T02:40:46.145Z,3.50
2018-05-08T02:43:13.579Z,3.53
2018-05-08T02:45:40.990Z,3.10
2018-05-08T02:48:08.442Z,3.87
2018-05-08T02:50:35.856Z,2.90
2018-05-08T02:53:03.268Z,4.10
2018-05-08T02:55:30.709Z,3.67
2018-05-08T02:57:59.465Z,3.70
2018-05-08T03:00:26.895Z,3.93
2018-05-08T03:02:54.305Z,4.80
2018-05-08T03:05:21.750Z,3.73
2018-05-08T03:07:49.165Z,4.67
2018-05-08T03:10:16.595Z,3.53
2018-05-08T03:12:44.006Z,4.33
2018-05-08T03:15:11.437Z,3.57
2018-05-08T03:17:39.778Z,4.83
2018-05-08T03:20:07.214Z,4.20
2018-05-08T03:22:34.621Z,3.57
2018-05-08T03:25:02.588Z,4.10
2018-05-08T03:27:29.999Z,4.30
2018-05-08T03:29:57.441Z,5.00
2018-05-08T03:32:24.856Z,3.23
2018-05-08T03:34:52.257Z,3.73
2018-05-08T03:37:19.697Z,3.80
2018-05-08T03:39:47.105Z,3.30
2018-05-08T03:42:14.545Z,5.53
2018-05-08T03:44:42.002Z,3.60
2018-05-08T03:47:09.398Z,3.23
2018-05-08T03:49:36.805Z,3.00
2018-05-08T03:52:04.245Z,3.27
2018-05-08T03:54:31.654Z,5.70
2018-05-08T03:56:59.113Z,4.17
2018-05-08T03:59:27.008Z,3.77
2018-05-08T04:02:06.465Z,9.40
2018-05-08T04:04:46.765Z,5.83
2018-05-08T04:07:25.950Z,6.27
2018-05-08T04:09:54.161Z,6.33
2018-05-08T04:12:21.617Z,6.00
2018-05-08T04:14:49.034Z,7.50
2018-05-08T04:17:16.463Z,6.17
2018-05-08T04:19:43.889Z,7.00
2018-05-08T04:22:11.345Z,10.67
2018-05-08T04:24:38.762Z,7.60
2018-05-08T04:27:06.180Z,9.13
2018-05-08T04:29:34.557Z,7.47
2018-05-08T04:32:01.969Z,9.53
2018-05-08T04:34:29.402Z,8.63
2018-05-08T04:36:57.345Z,8.67
2018-05-08T04:39:24.790Z,7.87
2018-05-08T04:41:52.211Z,8.53
2018-05-08T04:44:19.658Z,7.10
2018-05-08T04:46:47.072Z,5.83
2018-05-08T04:49:14.516Z,8.83
2018-05-08T04:51:41.940Z,10.67
2018-05-08T04:54:09.377Z,8.73
2018-05-08T04:56:36.799Z,4.77
2018-05-08T04:59:04.237Z,4.80
2018-05-08T05:01:31.642Z,4.13
2018-05-08T05:03:59.079Z,4.47
2018-05-08T05:06:26.911Z,4.97
2018-05-08T05:08:54.324Z,5.00
2018-05-08T05:11:21.772Z,6.90
2018-05-08T05:13:49.534Z,5.63
2018-05-08T05:16:16.969Z,6.37
2018-05-08T05:18:45.110Z,6.50
2018-05-08T05:21:12.557Z,7.10
2018-05-08T05:23:39.973Z,5.93
2018-05-08T05:26:08.311Z,5.40
2018-05-08T05:28:35.721Z,6.30
2018-05-08T05:31:04.064Z,5.33
2018-05-08T05:33:31.477Z,4.70
2018-05-08T05:35:59.876Z,5.60
2018-05-08T05:38:27.285Z,6.47
2018-05-08T05:40:54.715Z,4.87
2018-05-08T05:43:22.606Z,3.13
2018-05-08T05:45:50.038Z,4.10
2018-05-08T05:48:17.840Z,3.03
2018-05-08T05:50:46.174Z,3.13
2018-05-08T05:53:13.612Z,4.00
2018-05-08T05:55:41.042Z,2.90
2018-05-08T05:58:08.460Z,3.30
2018-05-08T06:00:36.397Z,3.43
2018-05-08T06:03:03.838Z,2.60
2018-05-08T06:05:31.246Z,3.20
2018-05-08T06:07:58.678Z,3.20
2018-05-08T06:10:26.085Z,2.73
2018-05-08T06:12:55.522Z,2.73
2018-05-08T06:15:22.941Z,3.90
2018-05-08T06:17:50.373Z,2.93
2018-05-08T06:20:17.786Z,3.13
2018-05-08T06:22:45.214Z,3.50
2018-05-08T06:25:12.625Z,3.20
2018-05-08T06:27:40.065Z,3.50
2018-05-08T06:30:07.482Z,3.30
2018-05-08T06:32:34.921Z,4.20
2018-05-08T06:35:02.337Z,3.57
2018-05-08T06:37:29.794Z,3.40
2018-05-08T06:39:58.148Z,3.33
2018-05-08T06:42:29.318Z,4.23
2018-05-08T06:44:56.763Z,3.47
2018-05-08T06:47:24.170Z,3.13
2018-05-08T06:49:51.611Z,3.20
2018-05-08T06:52:25.375Z,3.23
2018-05-08T06:54:53.805Z,2.73
2018-05-08T06:57:21.152Z,3.87
2018-05-08T06:59:53.195Z,3.10
2018-05-08T07:02:20.610Z,3.07
2018-05-08T07:04:49.026Z,2.50
2018-05-08T07:07:21.869Z,2.60
2018-05-08T07:09:51.236Z,3.27
2018-05-08T07:12:21.893Z,2.87
2018-05-08T07:14:50.327Z,3.03
2018-05-08T07:17:17.741Z,3.00
2018-05-08T07:19:45.222Z,2.70
2018-05-08T07:22:12.657Z,3.20
2018-05-08T07:24:43.627Z,3.00
2018-05-08T07:27:11.966Z,3.20
2018-05-08T07:29:39.424Z,3.60
2018-05-08T07:32:08.832Z,3.00
2018-05-08T07:34:36.322Z,3.27
2018-05-08T07:37:03.746Z,3.80
2018-05-08T07:39:31.186Z,3.00
2018-05-08T07:41:58.613Z,3.67
2018-05-08T07:44:27.066Z,3.53
2018-05-08T07:46:54.522Z,2.80
2018-05-08T07:49:21.969Z,3.27
2018-05-08T07:51:49.427Z,2.73
2018-05-08T07:54:16.825Z,2.73
2018-05-08T07:56:44.254Z,2.93
2018-05-08T07:59:11.688Z,2.70
2018-05-08T08:01:39.158Z,3.47
2018-05-08T08:04:06.644Z,3.27
2018-05-08T08:06:34.086Z,2.50
2018-05-08T08:09:01.502Z,3.10
2018-05-08T08:11:28.978Z,3.30
2018-05-08T08:13:56.405Z,3.10
2018-05-08T08:16:23.857Z,2.93
2018-05-08T08:18:51.286Z,4.03
2018-05-08T08:21:18.713Z,4.13
2018-05-08T08:23:46.179Z,3.10
2018-05-08T08:26:13.576Z,3.40
2018-05-08T08:28:40.992Z,2.80
2018-05-08T08:31:08.538Z,3.00
2018-05-08T08:33:35.949Z,3.40
2018-05-08T08:36:03.362Z,3.77
2018-05-08T08:38:30.897Z,2.70
2018-05-08T08:40:58.395Z,2.33
2018-05-08T08:43:25.745Z,3.63
2018-05-08T08:45:53.160Z,3.17
2018-05-08T08:48:20.598Z,3.10
2018-05-08T08:50:49.110Z,2.77
2018-05-08T08:53:17.477Z,3.13
2018-05-08T08:55:44.901Z,2.80
2018-05-08T08:58:12.341Z,3.00
2018-05-08T09:00:39.754Z,3.00
2018-05-08T09:03:07.205Z,2.63
2018-05-08T09:05:34.677Z,3.07
2018-05-08T09:08:02.241Z,3.70
2018-05-08T09:10:29.653Z,2.90
2018-05-08T09:12:57.105Z,2.97
2018-05-08T09:15:24.516Z,3.30
2018-05-08T09:17:51.953Z,2.83
2018-05-08T09:20:19.373Z,3.57
2018-05-08T09:22:46.782Z,3.10
2018-05-08T09:25:14.222Z,2.57
2018-05-08T09:27:41.673Z,2.10
2018-05-08T09:30:09.090Z,2.30
2018-05-08T09:32:36.598Z,3.10
2018-05-08T09:35:04.041Z,2.83
2018-05-08T09:37:31.449Z,2.77
2018-05-08T09:39:58.889Z,2.00
2018-05-08T09:42:26.329Z,3.00
2018-05-08T09:44:53.778Z,2.30
2018-05-08T09:47:21.342Z,2.67
2018-05-08T09:49:48.796Z,2.47
2018-05-08T09:52:16.217Z,2.60
2018-05-08T09:54:44.633Z,2.47
2018-05-08T09:57:12.046Z,2.50
2018-05-08T09:59:39.550Z,2.67
2018-05-08T10:02:06.962Z,2.10
2018-05-08T10:04:34.370Z,2.63
2018-05-08T10:07:01.810Z,2.30
2018-05-08T10:09:29.221Z,2.27
2018-05-08T10:11:56.836Z,2.47
2018-05-08T10:14:24.286Z,2.60
2018-05-08T10:16:51.732Z,2.55
2018-05-08T10:19:19.139Z,2.63
2018-05-08T10:21:46.590Z,2.80
2018-05-08T10:24:14.011Z,2.57
2018-05-08T10:26:41.489Z,2.63
2018-05-08T10:29:08.925Z,2.30
2018-05-08T10:31:36.374Z,2.83
2018-05-08T10:34:03.815Z,2.40
2018-05-08T10:36:31.250Z,2.17
2018-05-08T10:38:58.749Z,3.30
2018-05-08T10:41:26.229Z,2.30
2018-05-08T10:43:53.639Z,2.23
2018-05-08T10:46:21.052Z,2.47
2018-05-08T10:48:48.580Z,1.97
2018-05-08T10:51:15.997Z,2.50
2018-05-08T10:53:43.447Z,2.50
2018-05-08T10:56:10.946Z,2.63
2018-05-08T10:58:38.401Z,2.40
2018-05-08T11:01:05.822Z,2.00
2018-05-08T11:03:33.256Z,2.43
2018-05-08T11:06:00.782Z,3.13
2018-05-08T11:08:28.238Z,2.10
2018-05-08T11:10:55.688Z,2.53
2018-05-08T11:13:23.114Z,2.53
2018-05-08T11:15:50.557Z,2.97
2018-05-08T11:18:18.053Z,2.70
2018-05-08T11:20:45.505Z,2.40
2018-05-08T11:23:12.920Z,2.33
2018-05-08T11:25:40.354Z,2.60
2018-05-08T11:28:07.778Z,2.30
2018-05-08T11:30:35.225Z,2.30
2018-05-08T11:33:02.651Z,1.90
2018-05-08T11:35:30.086Z,2.00
2018-05-08T11:37:57.499Z,2.30
2018-05-08T11:40:24.934Z,2.20
2018-05-08T11:42:52.357Z,2.60
2018-05-08T11:45:19.802Z,2.30
2018-05-08T11:47:47.224Z,1.83
2018-05-08T11:50:14.686Z,1.87
2018-05-08T11:52:42.131Z,2.40
2018-05-08T11:55:09.565Z,2.30
2018-05-08T11:57:37.014Z,2.50
2018-05-08T12:00:04.422Z,2.20
2018-05-08T12:02:31.932Z,2.20
2018-05-08T12:04:59.329Z,2.20
2018-05-08T12:07:26.770Z,2.10
2018-05-08T12:09:54.181Z,2.07
2018-05-08T12:12:21.698Z,3.33
2018-05-08T12:14:49.183Z,2.83
2018-05-08T12:17:16.561Z,2.47
2018-05-08T12:19:43.970Z,2.60
2018-05-08T12:22:11.434Z,2.43
2018-05-08T12:24:38.853Z,2.70
2018-05-08T12:27:06.340Z,2.83
2018-05-08T12:29:33.753Z,2.80
2018-05-08T12:32:01.171Z,2.53
2018-05-08T12:34:28.705Z,2.70
2018-05-08T12:36:56.117Z,2.53
2018-05-08T12:39:23.558Z,2.87
2018-05-08T12:41:50.969Z,2.63
2018-05-08T12:44:18.408Z,2.53
2018-05-08T12:46:45.833Z,2.77
2018-05-08T12:49:13.270Z,2.67
2018-05-08T12:51:40.684Z,2.67
2018-05-08T12:54:08.154Z,2.77
2018-05-08T12:56:35.570Z,2.20
2018-05-08T12:59:03.109Z,2.13
2018-05-08T13:01:30.522Z,2.17
2018-05-08T13:03:57.979Z,1.73
2018-05-08T13:06:25.374Z,2.60
2018-05-08T13:08:52.890Z,2.50
2018-05-08T13:11:20.338Z,2.63
2018-05-08T13:13:47.746Z,2.40
2018-05-08T13:16:15.185Z,2.33
2018-05-08T13:18:42.617Z,2.50
2018-05-08T13:21:10.095Z,2.57
2018-05-08T13:23:37.539Z,2.20
2018-05-08T13:26:04.982Z,2.40
2018-05-08T13:28:32.405Z,2.00
2018-05-08T13:30:59.971Z,2.03
2018-05-08T13:33:27.313Z,2.47
2018-05-08T13:35:54.818Z,2.50
2018-05-08T13:38:22.225Z,2.30
2018-05-08T13:40:49.665Z,2.53
2018-05-08T13:43:17.177Z,2.83
2018-05-08T13:45:44.593Z,1.97
2018-05-08T13:48:12.152Z,2.30
2018-05-08T13:50:39.555Z,2.50
2018-05-08T13:53:06.992Z,2.70
2018-05-08T13:55:34.399Z,3.07
2018-05-08T13:58:01.829Z,2.67
2018-05-08T14:00:29.242Z,2.73
2018-05-08T14:02:56.809Z,3.23
2018-05-08T14:05:24.294Z,3.27
2018-05-08T14:07:51.766Z,2.80
2018-05-08T14:10:19.182Z,3.67
2018-05-08T14:12:46.594Z,3.50
2018-05-08T14:15:14.225Z,3.57
2018-05-08T14:17:41.649Z,4.07
2018-05-08T14:20:09.097Z,3.20
2018-05-08T14:22:36.503Z,3.17
2018-05-08T14:25:03.938Z,3.57
2018-05-08T14:27:31.354Z,3.80
2018-05-08T14:29:58.874Z,2.80
2018-05-08T14:32:26.326Z,3.70
2018-05-08T14:34:53.779Z,3.60
2018-05-08T14:37:21.198Z,3.37
2018-05-08T14:39:48.689Z,3.43
2018-05-08T14:42:16.130Z,3.50
2018-05-08T14:44:43.554Z,3.80
2018-05-08T14:47:10.983Z,3.50
2018-05-08T14:49:38.459Z,4.07
2018-05-08T14:52:05.865Z,4.50
2018-05-08T14:54:33.291Z,4.53
2018-05-08T14:57:00.718Z,4.20
2018-05-08T14:59:28.129Z,3.10
2018-05-08T15:01:55.580Z,4.20
2018-05-08T15:04:23.144Z,3.83
2018-05-08T15:06:50.510Z,4.50
2018-05-08T15:09:17.949Z,3.80
2018-05-08T15:11:45.408Z,3.60
2018-05-08T15:14:12.805Z,3.83
2018-05-08T15:16:40.229Z,4.43
2018-05-08T15:19:07.686Z,3.97
2018-05-08T15:21:35.129Z,4.10
2018-05-08T15:24:02.605Z,3.70
2018-05-08T15:26:30.022Z,3.77
2018-05-08T15:28:57.523Z,3.37
2018-05-08T15:31:24.933Z,3.80
2018-05-08T15:33:52.362Z,3.40
2018-05-08T15:36:19.770Z,3.33
2018-05-08T15:38:47.205Z,3.63
2018-05-08T15:41:14.701Z,3.40
2018-05-08T15:43:42.149Z,3.23
2018-05-08T15:46:09.568Z,3.03
2018-05-08T15:48:37.066Z,3.50
2018-05-08T15:51:04.485Z,3.27
2018-05-08T15:53:31.921Z,3.13
2018-05-08T15:55:59.325Z,3.00
2018-05-08T15:58:26.766Z,3.00
2018-05-08T16:00:54.244Z,3.30
2018-05-08T16:03:21.702Z,3.63
2018-05-08T16:05:49.151Z,3.20
2018-05-08T16:08:16.550Z,2.80
2018-05-08T16:10:43.986Z,3.30
2018-05-08T16:13:11.388Z,5.13
2018-05-08T16:15:38.817Z,2.80
2018-05-08T16:18:06.230Z,2.87
2018-05-08T16:20:33.683Z,2.57
2018-05-08T16:23:01.093Z,2.70
2018-05-08T16:25:28.534Z,3.37
2018-05-08T16:27:55.938Z,3.10
2018-05-08T16:30:23.454Z,4.00
2018-05-08T16:32:50.798Z,2.83
2018-05-08T16:35:19.255Z,3.30
2018-05-08T16:37:46.669Z,3.20
2018-05-08T16:40:14.103Z,4.17
2018-05-08T16:42:41.512Z,3.20
2018-05-08T16:45:08.918Z,3.50
2018-05-08T16:47:37.432Z,2.83
2018-05-08T16:50:04.770Z,3.53
2018-05-08T16:52:32.209Z,3.37
2018-05-08T16:54:59.626Z,3.33
2018-05-08T16:57:27.073Z,3.90
2018-05-08T16:59:54.497Z,3.40
2018-05-08T17:02:21.935Z,2.93
2018-05-08T17:04:49.358Z,3.83
2018-05-08T17:07:16.792Z,3.47
2018-05-08T17:09:44.200Z,3.77
2018-05-08T17:12:11.638Z,3.70
2018-05-08T17:14:39.054Z,4.03
2018-05-08T17:17:06.503Z,4.27
2018-05-08T17:19:33.923Z,3.60
2018-05-08T17:22:01.359Z,4.27
2018-05-08T17:24:28.771Z,4.00
2018-05-08T17:26:57.130Z,4.90
2018-05-08T17:29:24.544Z,4.70
2018-05-08T17:31:52.849Z,3.63
2018-05-08T17:34:20.301Z,3.90
2018-05-08T17:36:47.718Z,3.27
2018-05-08T17:39:15.151Z,4.43
2018-05-08T17:41:42.586Z,4.10
2018-05-08T17:44:10.031Z,3.87
2018-05-08T17:46:37.449Z,4.30
2018-05-08T17:49:04.894Z,4.10
2018-05-08T17:51:32.309Z,4.00
2018-05-08T17:53:59.757Z,3.90
2018-05-08T17:56:27.757Z,4.97
2018-05-08T17:58:56.094Z,5.00
2018-05-08T18:01:24.516Z,3.77
2018-05-08T18:03:51.961Z,3.80
2018-05-08T18:06:19.372Z,3.93
2018-05-08T18:08:46.817Z,4.50
2018-05-08T18:11:14.231Z,3.73
2018-05-08T18:13:42.587Z,4.10
2018-05-08T18:16:09.990Z,5.67
2018-05-08T18:18:37.451Z,5.07
2018-05-08T18:21:04.877Z,5.03
2018-05-08T18:23:32.286Z,5.27
2018-05-08T18:25:59.722Z,4.80
2018-05-08T18:28:28.227Z,5.00
2018-05-08T18:30:55.656Z,3.73
2018-05-08T18:33:23.134Z,4.50
2018-05-08T18:35:52.574Z,4.57
2018-05-08T18:38:19.994Z,4.90
2018-05-08T18:40:47.473Z,3.63
2018-05-08T18:43:14.923Z,3.60
2018-05-08T18:45:43.274Z,3.90
2018-05-08T18:48:10.713Z,3.50
2018-05-08T18:50:38.154Z,3.67
2018-05-08T18:53:05.567Z,3.90
2018-05-08T18:55:33.002Z,4.43
2018-05-08T18:58:00.430Z,4.10
2018-05-08T19:00:27.862Z,4.50
2018-05-08T19:02:56.282Z,4.80
2018-05-08T19:05:23.783Z,3.50
2018-05-08T19:07:51.261Z,4.03
2018-05-08T19:10:18.710Z,3.40
2018-05-08T19:12:46.142Z,3.40
2018-05-08T19:15:19.306Z,3.50
2018-05-08T19:17:46.745Z,3.43
2018-05-08T19:20:14.157Z,4.00
2018-05-08T19:22:41.684Z,3.40
2018-05-08T19:25:10.077Z,3.60
2018-05-08T19:27:37.510Z,3.93
2018-05-08T19:30:10.497Z,3.73
2018-05-08T19:32:37.946Z,3.70
2018-05-08T19:35:11.065Z,3.20
2018-05-08T19:37:44.310Z,3.33
2018-05-08T19:40:11.725Z,4.07
2018-05-08T19:42:39.160Z,3.50
2018-05-08T19:45:06.594Z,4.17
2018-05-08T19:47:34.039Z,3.73
2018-05-08T19:50:01.450Z,3.40
2018-05-08T19:52:29.905Z,3.97
2018-05-08T19:54:57.302Z,6.37
2018-05-08T19:57:24.738Z,4.00
2018-05-08T19:59:53.154Z,4.70
2018-05-08T20:02:20.738Z,4.93
2018-05-08T20:04:48.075Z,4.80
2018-05-08T20:07:15.559Z,4.93
2018-05-08T20:09:42.994Z,3.73
2018-05-08T20:12:10.467Z,4.10
2018-05-08T20:14:37.898Z,4.30
2018-05-08T20:17:05.360Z,3.53
2018-05-08T20:19:32.766Z,3.97
2018-05-08T20:22:00.181Z,4.53
2018-05-08T20:24:27.632Z,4.57
2018-05-08T20:26:55.040Z,3.87
2018-05-08T20:29:22.635Z,4.23
2018-05-08T20:31:49.982Z,3.53
2018-05-08T20:34:18.387Z,3.73
2018-05-08T20:36:45.798Z,4.00
2018-05-08T20:39:14.104Z,3.90
2018-05-08T20:41:41.583Z,4.40
2018-05-08T20:44:09.046Z,3.50
2018-05-08T20:46:36.471Z,3.03
2018-05-08T20:49:03.917Z,4.00
2018-05-08T20:51:31.318Z,4.03
2018-05-08T20:53:58.765Z,4.00
2018-05-08T20:56:26.222Z,3.40
2018-05-08T20:58:53.674Z,3.20
2018-05-08T21:01:21.219Z,4.80
2018-05-08T21:03:48.534Z,3.00
2018-05-08T21:06:15.974Z,3.77
2018-05-08T21:08:43.386Z,3.20
2018-05-08T21:11:10.837Z,4.03
2018-05-08T21:13:39.247Z,3.17
2018-05-08T21:16:06.723Z,2.50
2018-05-08T21:18:34.129Z,2.97
2018-05-08T21:21:01.570Z,2.83
2018-05-08T21:23:29.066Z,2.73
2018-05-08T21:25:56.501Z,2.50
2018-05-08T21:28:29.481Z,2.73
2018-05-08T21:31:02.479Z,2.70
2018-05-08T21:33:29.896Z,3.33
2018-05-08T21:35:57.412Z,2.20
2018-05-08T21:38:24.828Z,3.00
2018-05-08T21:40:52.266Z,2.93
2018-05-08T21:43:19.743Z,2.83
2018-05-08T21:45:47.166Z,2.70
2018-05-08T21:48:14.601Z,2.83
2018-05-08T21:50:42.149Z,2.63
2018-05-08T21:53:10.517Z,3.33
2018-05-08T21:55:37.921Z,2.63
2018-05-08T21:58:05.349Z,2.77
2018-05-08T22:00:32.762Z,2.87
2018-05-08T22:03:00.214Z,3.50
2018-05-08T22:05:31.049Z,2.90
2018-05-08T22:07:59.385Z,2.40
2018-05-08T22:10:26.798Z,2.50
2018-05-08T22:12:54.233Z,2.67
2018-05-08T22:15:21.646Z,2.90
2018-05-08T22:17:49.091Z,3.33
2018-05-08T22:20:18.554Z,3.90
2018-05-08T22:22:45.917Z,2.97
2018-05-08T22:25:14.295Z,2.87
2018-05-08T22:27:41.738Z,2.83
2018-05-08T22:30:09.153Z,3.37
2018-05-08T22:32:36.595Z,2.70
2018-05-08T22:35:04.217Z,3.00
2018-05-08T22:37:31.711Z,4.80
2018-05-08T22:39:59.095Z,2.70
2018-05-08T22:42:26.567Z,3.20
2018-05-08T22:44:54.010Z,3.20
2018-05-08T22:47:21.436Z,2.87
2018-05-08T22:49:48.874Z,3.17
2018-05-08T22:52:16.298Z,3.63
2018-05-08T22:54:43.738Z,3.17
2018-05-08T22:57:11.178Z,3.30
2018-05-08T22:59:38.615Z,3.03
2018-05-08T23:02:06.033Z,3.40
2018-05-08T23:04:33.469Z,3.47
2018-05-08T23:07:01.838Z,3.40
2018-05-08T23:09:29.283Z,3.37
2018-05-08T23:11:56.695Z,3.40
2018-05-08T23:14:24.129Z,3.20
2018-05-08T23:16:51.537Z,3.77
2018-05-08T23:19:19.093Z,4.03
2018-05-08T23:21:46.553Z,3.30
2018-05-08T23:24:13.963Z,3.33
2018-05-08T23:26:41.430Z,3.33
2018-05-08T23:29:08.838Z,3.53
2018-05-08T23:31:36.273Z,3.63
2018-05-08T23:34:03.681Z,3.57
2018-05-08T23:36:31.110Z,3.67
2018-05-08T23:38:58.520Z,3.30
2018-05-08T23:41:25.953Z,3.17
2018-05-08T23:43:53.365Z,3.90
2018-05-08T23:46:20.797Z,3.60
2018-05-08T23:48:48.214Z,3.47
2018-05-08T23:51:15.650Z,3.70
2018-05-08T23:53:43.131Z,3.80
2018-05-08T23:56:10.498Z,3.00
2018-05-08T23:58:37.917Z,3.33
